Talmadge, Maine
Current Conditions -  °F | °C
As of 10:53 AM on Wednesday 26 Nov 2014 (Local Time) from KHUL Reporting Station
Clear Clear  
Wind Chill:   Ceiling: Unl
Heat Index:   Visibility: 10mi
Dew Point: -6°   Wind: 6mph
Humidity: 54%   Direction: 280°W
Pressure: 30.19"   Gusts: NA
Location:  45.3759°N, 67.6018°W
Report Text: KHUL 261553Z AUTO 28005KT 10SM CLR 03/M06 A3019 RMK AO2 SLP229 T00281056
Loading
Personal Weather Stations






























Interactive Weather Map New forecast layout! Learn more

10-Day Weather Forecast

Advertisements
Track Severe Weather on mobile